sensor_id;sensor_type;location;lat;lon;timestamp;temperature;humidity
15574;DHT22;7888;46.748;8.102;2023-07-20T00:01:47;25.30;42.20
15574;DHT22;7888;46.748;8.102;2023-07-20T00:04:13;25.20;42.10
15574;DHT22;7888;46.748;8.102;2023-07-20T00:06:40;25.20;42.20
15574;DHT22;7888;46.748;8.102;2023-07-20T00:09:07;25.20;42.30
15574;DHT22;7888;46.748;8.102;2023-07-20T00:11:36;25.20;42.40
15574;DHT22;7888;46.748;8.102;2023-07-20T00:14:04;25.10;42.30
15574;DHT22;7888;46.748;8.102;2023-07-20T00:16:30;25.10;42.30
15574;DHT22;7888;46.748;8.102;2023-07-20T00:18:56;25.10;42.50
15574;DHT22;7888;46.748;8.102;2023-07-20T00:21:22;25.00;42.50
15574;DHT22;7888;46.748;8.102;2023-07-20T00:23:47;25.00;42.50
15574;DHT22;7888;46.748;8.102;2023-07-20T00:26:13;25.00;42.60
15574;DHT22;7888;46.748;8.102;2023-07-20T00:28:39;24.90;42.60
15574;DHT22;7888;46.748;8.102;2023-07-20T00:31:05;24.90;42.70
15574;DHT22;7888;46.748;8.102;2023-07-20T00:33:30;24.90;42.80
15574;DHT22;7888;46.748;8.102;2023-07-20T00:35:56;24.90;42.80
15574;DHT22;7888;46.748;8.102;2023-07-20T00:38:22;24.90;43.10
15574;DHT22;7888;46.748;8.102;2023-07-20T00:40:48;24.90;43.10
15574;DHT22;7888;46.748;8.102;2023-07-20T00:43:15;24.80;43.00
15574;DHT22;7888;46.748;8.102;2023-07-20T00:45:41;24.80;43.10
15574;DHT22;7888;46.748;8.102;2023-07-20T00:48:08;24.80;43.10
15574;DHT22;7888;46.748;8.102;2023-07-20T00:50:34;24.80;43.20
15574;DHT22;7888;46.748;8.102;2023-07-20T00:53:02;24.70;43.20
15574;DHT22;7888;46.748;8.102;2023-07-20T00:55:32;24.70;43.40
15574;DHT22;7888;46.748;8.102;2023-07-20T00:57:59;24.70;43.40
15574;DHT22;7888;46.748;8.102;2023-07-20T01:00:25;24.70;43.50
15574;DHT22;7888;46.748;8.102;2023-07-20T01:02:52;24.70;43.60
15574;DHT22;7888;46.748;8.102;2023-07-20T01:05:19;24.70;43.70
15574;DHT22;7888;46.748;8.102;2023-07-20T01:12:55;24.60;43.70
15574;DHT22;7888;46.748;8.102;2023-07-20T01:15:22;24.60;44.00
15574;DHT22;7888;46.748;8.102;2023-07-20T01:17:47;24.60;43.80
15574;DHT22;7888;46.748;8.102;2023-07-20T01:20:19;24.60;44.00
15574;DHT22;7888;46.748;8.102;2023-07-20T01:31:44;24.60;44.20
15574;DHT22;7888;46.748;8.102;2023-07-20T01:34:12;24.60;44.20
15574;DHT22;7888;46.748;8.102;2023-07-20T01:36:43;24.60;44.40
15574;DHT22;7888;46.748;8.102;2023-07-20T01:39:10;24.60;44.40
15574;DHT22;7888;46.748;8.102;2023-07-20T01:41:37;24.60;44.40
15574;DHT22;7888;46.748;8.102;2023-07-20T01:44:04;24.60;44.30
15574;DHT22;7888;46.748;8.102;2023-07-20T01:46:30;24.60;44.30
15574;DHT22;7888;46.748;8.102;2023-07-20T01:48:56;24.60;44.30
15574;DHT22;7888;46.748;8.102;2023-07-20T01:51:21;24.60;44.40
15574;DHT22;7888;46.748;8.102;2023-07-20T01:53:47;24.60;44.50
15574;DHT22;7888;46.748;8.102;2023-07-20T01:56:13;24.60;44.30
15574;DHT22;7888;46.748;8.102;2023-07-20T01:58:39;24.60;44.30
15574;DHT22;7888;46.748;8.102;2023-07-20T02:01:04;24.50;44.60
15574;DHT22;7888;46.748;8.102;2023-07-20T02:03:30;24.50;44.90
15574;DHT22;7888;46.748;8.102;2023-07-20T02:05:56;24.50;44.90
15574;DHT22;7888;46.748;8.102;2023-07-20T02:08:22;24.50;45.10
15574;DHT22;7888;46.748;8.102;2023-07-20T02:10:49;24.50;45.20
15574;DHT22;7888;46.748;8.102;2023-07-20T02:13:15;24.50;45.20
15574;DHT22;7888;46.748;8.102;2023-07-20T02:15:41;24.50;45.20
15574;DHT22;7888;46.748;8.102;2023-07-20T02:18:08;24.50;45.30
15574;DHT22;7888;46.748;8.102;2023-07-20T02:20:35;24.60;45.30
15574;DHT22;7888;46.748;8.102;2023-07-20T02:23:01;24.60;45.30
15574;DHT22;7888;46.748;8.102;2023-07-20T02:25:27;24.50;45.20
15574;DHT22;7888;46.748;8.102;2023-07-20T02:27:52;24.60;45.10
15574;DHT22;7888;46.748;8.102;2023-07-20T02:30:18;24.60;45.20
15574;DHT22;7888;46.748;8.102;2023-07-20T02:32:44;24.60;45.30
15574;DHT22;7888;46.748;8.102;2023-07-20T02:35:11;24.60;45.30
15574;DHT22;7888;46.748;8.102;2023-07-20T02:37:37;24.50;45.20
15574;DHT22;7888;46.748;8.102;2023-07-20T02:40:03;24.50;45.20
15574;DHT22;7888;46.748;8.102;2023-07-20T02:42:30;24.50;45.40
15574;DHT22;7888;46.748;8.102;2023-07-20T02:44:56;24.60;45.50
15574;DHT22;7888;46.748;8.102;2023-07-20T02:47:21;24.60;45.90
15574;DHT22;7888;46.748;8.102;2023-07-20T02:49:47;24.60;45.40
15574;DHT22;7888;46.748;8.102;2023-07-20T02:52:13;24.60;45.30
15574;DHT22;7888;46.748;8.102;2023-07-20T02:54:38;24.60;45.40
15574;DHT22;7888;46.748;8.102;2023-07-20T02:57:04;24.60;45.50
15574;DHT22;7888;46.748;8.102;2023-07-20T02:59:30;24.70;45.60
15574;DHT22;7888;46.748;8.102;2023-07-20T03:01:56;24.70;45.60
15574;DHT22;7888;46.748;8.102;2023-07-20T03:04:23;24.70;45.50
15574;DHT22;7888;46.748;8.102;2023-07-20T03:06:51;24.70;45.60
15574;DHT22;7888;46.748;8.102;2023-07-20T03:09:17;24.70;45.70
15574;DHT22;7888;46.748;8.102;2023-07-20T03:11:42;24.70;45.60
15574;DHT22;7888;46.748;8.102;2023-07-20T03:14:08;24.60;45.60
15574;DHT22;7888;46.748;8.102;2023-07-20T03:16:36;24.60;45.70
15574;DHT22;7888;46.748;8.102;2023-07-20T03:19:02;24.60;45.70
15574;DHT22;7888;46.748;8.102;2023-07-20T03:21:28;24.60;45.90
15574;DHT22;7888;46.748;8.102;2023-07-20T03:23:54;24.60;45.90
15574;DHT22;7888;46.748;8.102;2023-07-20T03:26:20;24.50;46.10
15574;DHT22;7888;46.748;8.102;2023-07-20T03:28:46;24.50;46.30
15574;DHT22;7888;46.748;8.102;2023-07-20T03:31:11;24.50;46.30
15574;DHT22;7888;46.748;8.102;2023-07-20T03:33:37;24.50;46.10
15574;DHT22;7888;46.748;8.102;2023-07-20T03:36:04;24.50;46.30
15574;DHT22;7888;46.748;8.102;2023-07-20T03:38:30;24.50;46.30
15574;DHT22;7888;46.748;8.102;2023-07-20T03:41:00;24.40;46.30
15574;DHT22;7888;46.748;8.102;2023-07-20T03:43:27;24.40;46.60
15574;DHT22;7888;46.748;8.102;2023-07-20T03:45:53;24.40;46.60
15574;DHT22;7888;46.748;8.102;2023-07-20T03:48:21;24.40;46.50
15574;DHT22;7888;46.748;8.102;2023-07-20T03:50:49;24.30;46.60
15574;DHT22;7888;46.748;8.102;2023-07-20T03:53:16;24.30;46.70
15574;DHT22;7888;46.748;8.102;2023-07-20T03:55:49;24.30;46.70
15574;DHT22;7888;46.748;8.102;2023-07-20T03:58:17;24.20;46.40
15574;DHT22;7888;46.748;8.102;2023-07-20T04:00:51;24.20;46.40
15574;DHT22;7888;46.748;8.102;2023-07-20T04:03:20;24.20;46.70
15574;DHT22;7888;46.748;8.102;2023-07-20T04:05:48;24.20;46.80
15574;DHT22;7888;46.748;8.102;2023-07-20T04:08:13;24.20;46.60
15574;DHT22;7888;46.748;8.102;2023-07-20T04:10:42;24.20;46.70
15574;DHT22;7888;46.748;8.102;2023-07-20T04:13:08;24.20;46.90
15574;DHT22;7888;46.748;8.102;2023-07-20T04:15:34;24.20;47.00
15574;DHT22;7888;46.748;8.102;2023-07-20T04:18:00;24.20;47.10
15574;DHT22;7888;46.748;8.102;2023-07-20T04:20:26;24.20;46.70
15574;DHT22;7888;46.748;8.102;2023-07-20T04:22:52;24.10;46.70
15574;DHT22;7888;46.748;8.102;2023-07-20T04:25:19;24.10;46.60
15574;DHT22;7888;46.748;8.102;2023-07-20T04:27:44;24.10;47.20
15574;DHT22;7888;46.748;8.102;2023-07-20T04:30:11;24.10;46.80
15574;DHT22;7888;46.748;8.102;2023-07-20T04:32:38;24.10;46.80
15574;DHT22;7888;46.748;8.102;2023-07-20T04:35:17;24.10;46.90
15574;DHT22;7888;46.748;8.102;2023-07-20T04:38:01;24.00;47.00
15574;DHT22;7888;46.748;8.102;2023-07-20T04:40:27;24.00;47.10
15574;DHT22;7888;46.748;8.102;2023-07-20T04:42:53;24.00;47.20
15574;DHT22;7888;46.748;8.102;2023-07-20T04:45:18;23.90;47.00
15574;DHT22;7888;46.748;8.102;2023-07-20T04:47:44;23.90;47.10
15574;DHT22;7888;46.748;8.102;2023-07-20T04:50:10;23.80;47.10
15574;DHT22;7888;46.748;8.102;2023-07-20T04:52:35;23.80;47.30
15574;DHT22;7888;46.748;8.102;2023-07-20T04:55:01;23.80;47.40
15574;DHT22;7888;46.748;8.102;2023-07-20T04:57:30;23.80;47.20
15574;DHT22;7888;46.748;8.102;2023-07-20T04:59:55;23.70;47.30
15574;DHT22;7888;46.748;8.102;2023-07-20T05:02:21;23.70;47.40
15574;DHT22;7888;46.748;8.102;2023-07-20T05:04:47;23.60;47.40
15574;DHT22;7888;46.748;8.102;2023-07-20T05:07:12;23.60;47.50
15574;DHT22;7888;46.748;8.102;2023-07-20T05:09:38;23.60;47.60
15574;DHT22;7888;46.748;8.102;2023-07-20T05:12:04;23.60;47.90
15574;DHT22;7888;46.748;8.102;2023-07-20T05:14:30;23.60;47.90
15574;DHT22;7888;46.748;8.102;2023-07-20T05:16:56;23.60;48.00
15574;DHT22;7888;46.748;8.102;2023-07-20T05:19:22;23.60;48.00
15574;DHT22;7888;46.748;8.102;2023-07-20T05:21:47;23.60;48.10
15574;DHT22;7888;46.748;8.102;2023-07-20T05:24:13;23.60;48.10
15574;DHT22;7888;46.748;8.102;2023-07-20T05:26:39;23.60;48.20
15574;DHT22;7888;46.748;8.102;2023-07-20T05:29:04;23.60;48.20
15574;DHT22;7888;46.748;8.102;2023-07-20T05:31:30;23.60;48.30
15574;DHT22;7888;46.748;8.102;2023-07-20T05:33:57;23.60;48.30
15574;DHT22;7888;46.748;8.102;2023-07-20T05:36:22;23.60;48.40
15574;DHT22;7888;46.748;8.102;2023-07-20T05:38:49;23.60;48.60
15574;DHT22;7888;46.748;8.102;2023-07-20T05:41:15;23.60;48.70
15574;DHT22;7888;46.748;8.102;2023-07-20T05:43:41;23.70;48.80
15574;DHT22;7888;46.748;8.102;2023-07-20T05:46:07;23.70;49.00
15574;DHT22;7888;46.748;8.102;2023-07-20T05:48:33;23.70;49.00
15574;DHT22;7888;46.748;8.102;2023-07-20T05:50:59;23.80;48.90
15574;DHT22;7888;46.748;8.102;2023-07-20T05:53:24;23.80;48.80
15574;DHT22;7888;46.748;8.102;2023-07-20T05:55:54;23.80;48.80
15574;DHT22;7888;46.748;8.102;2023-07-20T05:58:20;23.80;48.90
15574;DHT22;7888;46.748;8.102;2023-07-20T06:00:49;23.90;48.70
15574;DHT22;7888;46.748;8.102;2023-07-20T06:03:16;23.90;48.70
15574;DHT22;7888;46.748;8.102;2023-07-20T06:05:42;24.00;48.50
15574;DHT22;7888;46.748;8.102;2023-07-20T06:08:08;24.00;48.50
15574;DHT22;7888;46.748;8.102;2023-07-20T06:10:34;24.10;48.40
15574;DHT22;7888;46.748;8.102;2023-07-20T06:13:00;24.10;48.30
15574;DHT22;7888;46.748;8.102;2023-07-20T06:15:33;24.20;48.20
15574;DHT22;7888;46.748;8.102;2023-07-20T06:18:03;24.30;48.40
15574;DHT22;7888;46.748;8.102;2023-07-20T06:20:29;24.40;48.40
15574;DHT22;7888;46.748;8.102;2023-07-20T06:22:55;24.40;48.10
15574;DHT22;7888;46.748;8.102;2023-07-20T06:25:21;24.50;48.00
15574;DHT22;7888;46.748;8.102;2023-07-20T06:27:49;24.60;47.90
15574;DHT22;7888;46.748;8.102;2023-07-20T06:30:19;24.70;47.80
15574;DHT22;7888;46.748;8.102;2023-07-20T06:32:45;24.70;47.80
15574;DHT22;7888;46.748;8.102;2023-07-20T06:35:11;24.80;48.00
15574;DHT22;7888;46.748;8.102;2023-07-20T06:37:36;24.90;48.10
15574;DHT22;7888;46.748;8.102;2023-07-20T06:40:03;25.00;47.90
15574;DHT22;7888;46.748;8.102;2023-07-20T06:42:30;25.00;47.80
15574;DHT22;7888;46.748;8.102;2023-07-20T06:44:56;25.10;47.50
15574;DHT22;7888;46.748;8.102;2023-07-20T06:47:22;25.20;47.30
15574;DHT22;7888;46.748;8.102;2023-07-20T06:49:48;25.30;47.30
15574;DHT22;7888;46.748;8.102;2023-07-20T06:52:15;25.40;47.20
15574;DHT22;7888;46.748;8.102;2023-07-20T06:54:40;25.50;47.10
15574;DHT22;7888;46.748;8.102;2023-07-20T06:57:06;25.60;47.00
15574;DHT22;7888;46.748;8.102;2023-07-20T06:59:32;25.70;46.90
15574;DHT22;7888;46.748;8.102;2023-07-20T07:01:58;25.70;46.70
15574;DHT22;7888;46.748;8.102;2023-07-20T07:04:23;25.80;46.50
15574;DHT22;7888;46.748;8.102;2023-07-20T07:06:49;25.90;46.40
15574;DHT22;7888;46.748;8.102;2023-07-20T07:09:15;26.00;46.40
15574;DHT22;7888;46.748;8.102;2023-07-20T07:11:40;26.10;46.40
15574;DHT22;7888;46.748;8.102;2023-07-20T07:14:06;26.20;46.30
15574;DHT22;7888;46.748;8.102;2023-07-20T07:16:32;26.30;46.00
15574;DHT22;7888;46.748;8.102;2023-07-20T07:18:58;26.40;46.10
15574;DHT22;7888;46.748;8.102;2023-07-20T07:21:24;26.50;46.10
15574;DHT22;7888;46.748;8.102;2023-07-20T07:23:51;26.70;46.20
15574;DHT22;7888;46.748;8.102;2023-07-20T07:26:18;26.80;46.00
15574;DHT22;7888;46.748;8.102;2023-07-20T07:28:44;27.00;45.70
15574;DHT22;7888;46.748;8.102;2023-07-20T07:31:10;27.10;45.20
15574;DHT22;7888;46.748;8.102;2023-07-20T07:33:36;27.20;44.70
15574;DHT22;7888;46.748;8.102;2023-07-20T07:36:02;27.30;44.50
15574;DHT22;7888;46.748;8.102;2023-07-20T07:38:28;27.40;44.50
15574;DHT22;7888;46.748;8.102;2023-07-20T07:40:54;27.50;44.10
15574;DHT22;7888;46.748;8.102;2023-07-20T07:43:21;27.50;43.90
15574;DHT22;7888;46.748;8.102;2023-07-20T07:45:47;27.60;43.70
15574;DHT22;7888;46.748;8.102;2023-07-20T07:48:12;27.60;43.70
15574;DHT22;7888;46.748;8.102;2023-07-20T07:50:39;27.60;43.50
15574;DHT22;7888;46.748;8.102;2023-07-20T07:53:05;27.60;43.70
15574;DHT22;7888;46.748;8.102;2023-07-20T07:55:32;27.60;43.60
15574;DHT22;7888;46.748;8.102;2023-07-20T07:57:58;27.60;43.70
15574;DHT22;7888;46.748;8.102;2023-07-20T08:00:24;27.60;43.60
15574;DHT22;7888;46.748;8.102;2023-07-20T08:02:50;27.60;43.50
15574;DHT22;7888;46.748;8.102;2023-07-20T08:05:16;27.70;43.50
15574;DHT22;7888;46.748;8.102;2023-07-20T08:07:42;27.70;43.40
15574;DHT22;7888;46.748;8.102;2023-07-20T08:10:09;27.70;43.20
15574;DHT22;7888;46.748;8.102;2023-07-20T08:12:35;27.70;43.10
15574;DHT22;7888;46.748;8.102;2023-07-20T08:15:01;27.70;43.00
15574;DHT22;7888;46.748;8.102;2023-07-20T08:17:27;27.70;42.80
15574;DHT22;7888;46.748;8.102;2023-07-20T08:19:53;27.70;42.80
15574;DHT22;7888;46.748;8.102;2023-07-20T08:22:18;27.80;42.70
15574;DHT22;7888;46.748;8.102;2023-07-20T08:24:44;27.80;42.40
15574;DHT22;7888;46.748;8.102;2023-07-20T08:27:10;27.80;42.40
15574;DHT22;7888;46.748;8.102;2023-07-20T08:29:36;27.80;42.60
15574;DHT22;7888;46.748;8.102;2023-07-20T08:32:03;27.80;42.40
15574;DHT22;7888;46.748;8.102;2023-07-20T08:34:30;27.80;42.40
15574;DHT22;7888;46.748;8.102;2023-07-20T08:36:57;27.80;42.50
15574;DHT22;7888;46.748;8.102;2023-07-20T08:39:24;27.90;42.60
15574;DHT22;7888;46.748;8.102;2023-07-20T08:41:50;27.90;42.70
15574;DHT22;7888;46.748;8.102;2023-07-20T08:44:20;27.90;42.50
15574;DHT22;7888;46.748;8.102;2023-07-20T08:46:47;28.00;42.20
15574;DHT22;7888;46.748;8.102;2023-07-20T08:49:15;28.00;42.20
15574;DHT22;7888;46.748;8.102;2023-07-20T08:51:42;28.00;42.00
15574;DHT22;7888;46.748;8.102;2023-07-20T08:54:09;28.00;41.90
15574;DHT22;7888;46.748;8.102;2023-07-20T08:56:39;28.00;42.40
15574;DHT22;7888;46.748;8.102;2023-07-20T08:59:08;28.00;42.00
15574;DHT22;7888;46.748;8.102;2023-07-20T09:01:35;28.00;41.90
15574;DHT22;7888;46.748;8.102;2023-07-20T09:04:04;28.10;41.80
15574;DHT22;7888;46.748;8.102;2023-07-20T09:06:30;28.10;41.80
15574;DHT22;7888;46.748;8.102;2023-07-20T09:08:56;28.10;41.90
15574;DHT22;7888;46.748;8.102;2023-07-20T09:11:22;28.10;41.70
15574;DHT22;7888;46.748;8.102;2023-07-20T09:13:48;28.10;41.50
15574;DHT22;7888;46.748;8.102;2023-07-20T09:16:28;28.20;41.60
15574;DHT22;7888;46.748;8.102;2023-07-20T09:18:58;28.30;41.50
15574;DHT22;7888;46.748;8.102;2023-07-20T09:21:29;28.40;41.30
15574;DHT22;7888;46.748;8.102;2023-07-20T09:23:58;28.50;40.90
15574;DHT22;7888;46.748;8.102;2023-07-20T09:26:24;28.50;40.80
15574;DHT22;7888;46.748;8.102;2023-07-20T09:28:52;28.60;40.90
15574;DHT22;7888;46.748;8.102;2023-07-20T09:31:19;28.70;40.80
15574;DHT22;7888;46.748;8.102;2023-07-20T09:33:47;28.70;40.90
15574;DHT22;7888;46.748;8.102;2023-07-20T09:36:14;28.80;40.60
15574;DHT22;7888;46.748;8.102;2023-07-20T09:38:44;28.90;40.50
15574;DHT22;7888;46.748;8.102;2023-07-20T09:41:15;28.90;40.10
15574;DHT22;7888;46.748;8.102;2023-07-20T09:43:43;28.90;39.70
15574;DHT22;7888;46.748;8.102;2023-07-20T09:46:12;29.00;40.10
15574;DHT22;7888;46.748;8.102;2023-07-20T09:48:39;29.10;40.30
15574;DHT22;7888;46.748;8.102;2023-07-20T09:51:05;29.10;40.10
15574;DHT22;7888;46.748;8.102;2023-07-20T09:53:33;29.20;39.90
15574;DHT22;7888;46.748;8.102;2023-07-20T09:56:00;29.20;39.60
15574;DHT22;7888;46.748;8.102;2023-07-20T09:58:27;29.30;39.60
15574;DHT22;7888;46.748;8.102;2023-07-20T10:00:55;29.30;39.60
15574;DHT22;7888;46.748;8.102;2023-07-20T10:03:28;29.40;39.60
15574;DHT22;7888;46.748;8.102;2023-07-20T10:06:04;29.40;39.50
15574;DHT22;7888;46.748;8.102;2023-07-20T10:08:35;29.50;39.10
15574;DHT22;7888;46.748;8.102;2023-07-20T10:11:07;29.50;39.40
15574;DHT22;7888;46.748;8.102;2023-07-20T10:13:38;29.60;39.40
15574;DHT22;7888;46.748;8.102;2023-07-20T10:16:10;29.60;39.30
15574;DHT22;7888;46.748;8.102;2023-07-20T10:18:50;29.60;39.00
15574;DHT22;7888;46.748;8.102;2023-07-20T10:21:20;29.60;38.60
15574;DHT22;7888;46.748;8.102;2023-07-20T10:23:48;29.70;38.90
15574;DHT22;7888;46.748;8.102;2023-07-20T10:26:15;29.70;38.80
15574;DHT22;7888;46.748;8.102;2023-07-20T10:28:41;29.80;38.80
15574;DHT22;7888;46.748;8.102;2023-07-20T10:31:09;29.80;38.70
15574;DHT22;7888;46.748;8.102;2023-07-20T10:33:37;29.80;38.70
15574;DHT22;7888;46.748;8.102;2023-07-20T10:36:05;29.90;38.40
15574;DHT22;7888;46.748;8.102;2023-07-20T10:38:40;29.90;38.10
15574;DHT22;7888;46.748;8.102;2023-07-20T10:44:04;30.00;37.40
15574;DHT22;7888;46.748;8.102;2023-07-20T10:49:09;30.10;37.50
15574;DHT22;7888;46.748;8.102;2023-07-20T10:51:46;30.20;37.50
15574;DHT22;7888;46.748;8.102;2023-07-20T10:56:43;30.40;37.40
15574;DHT22;7888;46.748;8.102;2023-07-20T10:59:39;30.50;37.40
15574;DHT22;7888;46.748;8.102;2023-07-20T11:02:08;30.60;37.40
15574;DHT22;7888;46.748;8.102;2023-07-20T11:04:44;30.60;37.20
15574;DHT22;7888;46.748;8.102;2023-07-20T11:07:36;30.60;37.00
15574;DHT22;7888;46.748;8.102;2023-07-20T11:10:13;30.70;37.20
15574;DHT22;7888;46.748;8.102;2023-07-20T11:13:19;30.70;37.10
15574;DHT22;7888;46.748;8.102;2023-07-20T11:18:26;30.80;37.00
15574;DHT22;7888;46.748;8.102;2023-07-20T11:20:52;30.80;36.90
15574;DHT22;7888;46.748;8.102;2023-07-20T11:23:22;30.80;36.70
15574;DHT22;7888;46.748;8.102;2023-07-20T11:25:49;30.90;36.80
15574;DHT22;7888;46.748;8.102;2023-07-20T11:28:15;30.90;36.40
15574;DHT22;7888;46.748;8.102;2023-07-20T11:30:41;30.90;36.40
15574;DHT22;7888;46.748;8.102;2023-07-20T11:33:10;30.90;36.30
15574;DHT22;7888;46.748;8.102;2023-07-20T11:35:42;30.90;35.70
15574;DHT22;7888;46.748;8.102;2023-07-20T11:38:09;30.90;35.90
15574;DHT22;7888;46.748;8.102;2023-07-20T11:40:35;30.90;36.00
15574;DHT22;7888;46.748;8.102;2023-07-20T11:43:01;31.00;35.90
15574;DHT22;7888;46.748;8.102;2023-07-20T11:45:27;31.00;36.30
15574;DHT22;7888;46.748;8.102;2023-07-20T11:47:58;31.00;35.80
15574;DHT22;7888;46.748;8.102;2023-07-20T11:50:25;31.00;35.80
15574;DHT22;7888;46.748;8.102;2023-07-20T11:52:51;31.10;36.50
15574;DHT22;7888;46.748;8.102;2023-07-20T11:55:17;31.10;35.90
